sensor_id;sensor_type;location;lat;lon;timestamp;pressure;altitude;pressure_sealevel;temperature;humidity
75794;BME280;64418;47.536;19.074;2023-04-06T00:01:13;100476.50;;;2.03;45.06
75794;BME280;64418;47.536;19.074;2023-04-06T00:03:39;100480.69;;;2.06;45.25
75794;BME280;64418;47.536;19.074;2023-04-06T00:06:07;100471.84;;;2.05;45.43
75794;BME280;64418;47.536;19.074;2023-04-06T00:08:33;100472.91;;;1.94;46.10
75794;BME280;64418;47.536;19.074;2023-04-06T00:10:58;100473.75;;;1.95;47.16
75794;BME280;64418;47.536;19.074;2023-04-06T00:13:24;100477.94;;;1.98;49.47
75794;BME280;64418;47.536;19.074;2023-04-06T00:15:50;100475.75;;;1.83;51.06
75794;BME280;64418;47.536;19.074;2023-04-06T00:18:19;100474.91;;;1.83;51.32
75794;BME280;64418;47.536;19.074;2023-04-06T00:20:47;100466.38;;;1.79;51.79
75794;BME280;64418;47.536;19.074;2023-04-06T00:23:15;100469.66;;;1.64;52.21
75794;BME280;64418;47.536;19.074;2023-04-06T00:25:40;100467.44;;;1.59;52.58
75794;BME280;64418;47.536;19.074;2023-04-06T00:28:09;100463.91;;;1.59;52.17
75794;BME280;64418;47.536;19.074;2023-04-06T00:30:36;100460.16;;;1.52;52.73
75794;BME280;64418;47.536;19.074;2023-04-06T00:33:02;100454.88;;;1.42;52.51
75794;BME280;64418;47.536;19.074;2023-04-06T00:35:28;100464.75;;;1.32;53.13
75794;BME280;64418;47.536;19.074;2023-04-06T00:37:55;100456.06;;;1.20;53.80
75794;BME280;64418;47.536;19.074;2023-04-06T00:40:23;100453.81;;;1.16;54.25
75794;BME280;64418;47.536;19.074;2023-04-06T00:42:49;100449.59;;;1.23;53.74
75794;BME280;64418;47.536;19.074;2023-04-06T00:45:15;100457.19;;;1.18;54.19
75794;BME280;64418;47.536;19.074;2023-04-06T00:47:41;100453.69;;;1.08;54.27
75794;BME280;64418;47.536;19.074;2023-04-06T00:50:07;100447.09;;;1.02;54.38
75794;BME280;64418;47.536;19.074;2023-04-06T00:52:33;100442.22;;;0.88;55.25
75794;BME280;64418;47.536;19.074;2023-04-06T00:54:59;100445.59;;;0.80;55.28
75794;BME280;64418;47.536;19.074;2023-04-06T00:57:26;100450.37;;;0.77;55.49
75794;BME280;64418;47.536;19.074;2023-04-06T00:59:53;100446.75;;;0.78;55.53
75794;BME280;64418;47.536;19.074;2023-04-06T01:02:19;100453.03;;;0.77;55.96
75794;BME280;64418;47.536;19.074;2023-04-06T01:04:45;100448.84;;;0.65;56.23
75794;BME280;64418;47.536;19.074;2023-04-06T01:07:11;100450.25;;;0.59;56.49
75794;BME280;64418;47.536;19.074;2023-04-06T01:09:36;100449.41;;;0.68;56.36
75794;BME280;64418;47.536;19.074;2023-04-06T01:12:02;100446.75;;;0.59;56.60
75794;BME280;64418;47.536;19.074;2023-04-06T01:14:30;100450.25;;;0.69;56.16
75794;BME280;64418;47.536;19.074;2023-04-06T01:16:58;100446.06;;;0.57;56.34
75794;BME280;64418;47.536;19.074;2023-04-06T01:19:24;100455.56;;;0.69;56.41
75794;BME280;64418;47.536;19.074;2023-04-06T01:21:50;100450.78;;;0.72;56.02
75794;BME280;64418;47.536;19.074;2023-04-06T01:24:17;100455.44;;;0.51;56.36
75794;BME280;64418;47.536;19.074;2023-04-06T01:26:43;100449.69;;;0.36;56.95
75794;BME280;64418;47.536;19.074;2023-04-06T01:29:09;100454.06;;;0.37;56.84
75794;BME280;64418;47.536;19.074;2023-04-06T01:31:35;100451.38;;;0.28;57.39
75794;BME280;64418;47.536;19.074;2023-04-06T01:34:00;100443.66;;;0.25;57.25
75794;BME280;64418;47.536;19.074;2023-04-06T01:36:26;100453.06;;;0.29;57.54
75794;BME280;64418;47.536;19.074;2023-04-06T01:38:55;100455.31;;;0.43;57.14
75794;BME280;64418;47.536;19.074;2023-04-06T01:41:22;100445.91;;;0.39;56.79
75794;BME280;64418;47.536;19.074;2023-04-06T01:43:49;100452.22;;;0.57;56.29
75794;BME280;64418;47.536;19.074;2023-04-06T01:46:15;100443.94;;;0.22;56.73
75794;BME280;64418;47.536;19.074;2023-04-06T01:48:41;100451.94;;;0.31;56.59
75794;BME280;64418;47.536;19.074;2023-04-06T01:51:07;100448.56;;;0.20;56.68
75794;BME280;64418;47.536;19.074;2023-04-06T01:53:32;100442.38;;;0.10;56.70
75794;BME280;64418;47.536;19.074;2023-04-06T01:56:00;100439.59;;;0.11;56.79
75794;BME280;64418;47.536;19.074;2023-04-06T01:58:28;100436.38;;;0.17;57.06
75794;BME280;64418;47.536;19.074;2023-04-06T02:00:53;100438.75;;;0.11;56.74
75794;BME280;64418;47.536;19.074;2023-04-06T02:03:20;100429.22;;;0.18;56.25
75794;BME280;64418;47.536;19.074;2023-04-06T02:05:46;100436.78;;;0.22;56.08
75794;BME280;64418;47.536;19.074;2023-04-06T02:08:13;100437.22;;;0.18;56.01
75794;BME280;64418;47.536;19.074;2023-04-06T02:10:39;100426.97;;;0.23;55.81
75794;BME280;64418;47.536;19.074;2023-04-06T02:13:08;100431.72;;;0.10;56.15
75794;BME280;64418;47.536;19.074;2023-04-06T02:15:36;100426.84;;;0.15;56.16
75794;BME280;64418;47.536;19.074;2023-04-06T02:18:01;100435.34;;;0.09;56.17
75794;BME280;64418;47.536;19.074;2023-04-06T02:20:27;100424.59;;;0.10;56.24
75794;BME280;64418;47.536;19.074;2023-04-06T02:22:53;100421.62;;;0.04;56.52
75794;BME280;64418;47.536;19.074;2023-04-06T02:25:20;100421.88;;;0.00;56.71
75794;BME280;64418;47.536;19.074;2023-04-06T02:27:45;100429.47;;;-0.05;57.06
75794;BME280;64418;47.536;19.074;2023-04-06T02:30:11;100399.59;;;-0.18;57.15
75794;BME280;64418;47.536;19.074;2023-04-06T02:32:39;100406.75;;;-0.09;57.18
75794;BME280;64418;47.536;19.074;2023-04-06T02:35:05;100419.91;;;-0.07;57.33
75794;BME280;64418;47.536;19.074;2023-04-06T02:37:30;100399.87;;;-0.11;57.07
75794;BME280;64418;47.536;19.074;2023-04-06T02:39:56;100412.50;;;-0.04;56.90
75794;BME280;64418;47.536;19.074;2023-04-06T02:42:25;100416.56;;;0.00;56.77
75794;BME280;64418;47.536;19.074;2023-04-06T02:44:51;100418.97;;;0.04;56.48
75794;BME280;64418;47.536;19.074;2023-04-06T02:47:16;100411.00;;;0.04;56.25
75794;BME280;64418;47.536;19.074;2023-04-06T02:49:43;100414.19;;;-0.03;56.48
75794;BME280;64418;47.536;19.074;2023-04-06T02:52:10;100410.66;;;-0.03;56.40
75794;BME280;64418;47.536;19.074;2023-04-06T02:54:36;100403.94;;;-0.07;56.50
75794;BME280;64418;47.536;19.074;2023-04-06T02:57:02;100383.22;;;-0.23;56.59
75794;BME280;64418;47.536;19.074;2023-04-06T02:59:28;100408.28;;;-0.16;56.77
75794;BME280;64418;47.536;19.074;2023-04-06T03:01:54;100406.59;;;-0.17;56.73
75794;BME280;64418;47.536;19.074;2023-04-06T03:04:19;100401.56;;;-0.20;56.90
75794;BME280;64418;47.536;19.074;2023-04-06T03:06:47;100402.41;;;-0.19;56.87
75794;BME280;64418;47.536;19.074;2023-04-06T03:09:12;100407.00;;;-0.21;57.09
75794;BME280;64418;47.536;19.074;2023-04-06T03:11:38;100401.12;;;-0.25;57.30
75794;BME280;64418;47.536;19.074;2023-04-06T03:14:04;100403.09;;;-0.27;57.43
75794;BME280;64418;47.536;19.074;2023-04-06T03:16:30;100402.94;;;-0.35;57.51
75794;BME280;64418;47.536;19.074;2023-04-06T03:18:55;100413.41;;;-0.33;57.61
75794;BME280;64418;47.536;19.074;2023-04-06T03:21:25;100406.16;;;-0.31;57.51
75794;BME280;64418;47.536;19.074;2023-04-06T03:23:52;100407.84;;;-0.30;57.40
75794;BME280;64418;47.536;19.074;2023-04-06T03:26:18;100403.63;;;-0.33;57.59
75794;BME280;64418;47.536;19.074;2023-04-06T03:28:44;100406.44;;;-0.34;57.58
75794;BME280;64418;47.536;19.074;2023-04-06T03:31:10;100399.44;;;-0.26;57.37
75794;BME280;64418;47.536;19.074;2023-04-06T03:33:36;100406.00;;;-0.30;57.58
75794;BME280;64418;47.536;19.074;2023-04-06T03:36:02;100408.66;;;-0.30;57.39
75794;BME280;64418;47.536;19.074;2023-04-06T03:38:28;100413.28;;;-0.32;57.70
75794;BME280;64418;47.536;19.074;2023-04-06T03:40:55;100412.03;;;-0.28;57.48
75794;BME280;64418;47.536;19.074;2023-04-06T03:43:21;100398.56;;;-0.36;57.64
75794;BME280;64418;47.536;19.074;2023-04-06T03:45:48;100401.91;;;-0.34;57.79
75794;BME280;64418;47.536;19.074;2023-04-06T03:48:14;100413.00;;;-0.38;57.97
75794;BME280;64418;47.536;19.074;2023-04-06T03:50:40;100399.69;;;-0.38;58.12
75794;BME280;64418;47.536;19.074;2023-04-06T03:53:06;100405.88;;;-0.38;58.52
75794;BME280;64418;47.536;19.074;2023-04-06T03:55:31;100408.94;;;-0.33;58.38
75794;BME280;64418;47.536;19.074;2023-04-06T03:57:59;100404.34;;;-0.31;58.32
75794;BME280;64418;47.536;19.074;2023-04-06T04:00:25;100403.09;;;-0.27;58.55
75794;BME280;64418;47.536;19.074;2023-04-06T04:02:51;100400.66;;;-0.30;58.35
75794;BME280;64418;47.536;19.074;2023-04-06T04:05:20;100393.69;;;-0.31;58.19
75794;BME280;64418;47.536;19.074;2023-04-06T04:07:45;100398.84;;;-0.29;58.02
75794;BME280;64418;47.536;19.074;2023-04-06T04:10:11;100397.31;;;-0.32;58.01
75794;BME280;64418;47.536;19.074;2023-04-06T04:12:37;100381.47;;;-0.43;58.02
75794;BME280;64418;47.536;19.074;2023-04-06T04:15:05;100392.44;;;-0.27;57.90
75794;BME280;64418;47.536;19.074;2023-04-06T04:17:31;100388.81;;;-0.16;57.31
75794;BME280;64418;47.536;19.074;2023-04-06T04:19:57;100388.94;;;-0.18;57.24
75794;BME280;64418;47.536;19.074;2023-04-06T04:22:23;100395.50;;;-0.22;57.29
75794;BME280;64418;47.536;19.074;2023-04-06T04:24:48;100385.16;;;-0.25;57.35
75794;BME280;64418;47.536;19.074;2023-04-06T04:27:14;100386.97;;;-0.25;57.26
75794;BME280;64418;47.536;19.074;2023-04-06T04:29:40;100395.38;;;-0.20;57.34
75794;BME280;64418;47.536;19.074;2023-04-06T04:32:07;100390.50;;;-0.06;56.85
75794;BME280;64418;47.536;19.074;2023-04-06T04:34:35;100385.75;;;-0.12;57.05
75794;BME280;64418;47.536;19.074;2023-04-06T04:37:01;100390.38;;;-0.04;56.65
75794;BME280;64418;47.536;19.074;2023-04-06T04:39:27;100389.13;;;0.10;56.34
75794;BME280;64418;47.536;19.074;2023-04-06T04:41:52;100383.34;;;0.05;56.45
75794;BME280;64418;47.536;19.074;2023-04-06T04:44:18;100375.06;;;0.08;56.58
75794;BME280;64418;47.536;19.074;2023-04-06T04:46:44;100380.72;;;0.14;56.73
75794;BME280;64418;47.536;19.074;2023-04-06T04:49:11;100378.75;;;0.07;56.87
75794;BME280;64418;47.536;19.074;2023-04-06T04:51:37;100375.06;;;0.08;56.90
75794;BME280;64418;47.536;19.074;2023-04-06T04:54:03;100375.66;;;0.02;56.96
75794;BME280;64418;47.536;19.074;2023-04-06T04:56:29;100379.16;;;0.12;56.69
75794;BME280;64418;47.536;19.074;2023-04-06T04:58:56;100389.37;;;0.16;56.47
75794;BME280;64418;47.536;19.074;2023-04-06T05:01:21;100379.87;;;0.33;56.22
75794;BME280;64418;47.536;19.074;2023-04-06T05:03:47;100385.59;;;0.38;55.52
75794;BME280;64418;47.536;19.074;2023-04-06T05:06:15;100389.25;;;0.46;55.28
75794;BME280;64418;47.536;19.074;2023-04-06T05:08:41;100387.44;;;0.57;54.92
75794;BME280;64418;47.536;19.074;2023-04-06T05:11:10;100368.16;;;0.72;54.16
75794;BME280;64418;47.536;19.074;2023-04-06T05:13:36;100375.34;;;0.62;54.31
75794;BME280;64418;47.536;19.074;2023-04-06T05:16:03;100368.87;;;0.74;54.13
75794;BME280;64418;47.536;19.074;2023-04-06T05:18:30;100357.06;;;0.86;53.75
75794;BME280;64418;47.536;19.074;2023-04-06T05:20:56;100359.72;;;0.86;53.71
75794;BME280;64418;47.536;19.074;2023-04-06T05:23:23;100358.09;;;1.03;53.22
75794;BME280;64418;47.536;19.074;2023-04-06T05:25:49;100352.22;;;1.00;53.16
75794;BME280;64418;47.536;19.074;2023-04-06T05:28:15;100352.22;;;1.00;53.14
75794;BME280;64418;47.536;19.074;2023-04-06T05:30:44;100350.81;;;1.05;53.06
75794;BME280;64418;47.536;19.074;2023-04-06T05:33:10;100349.37;;;1.11;52.82
75794;BME280;64418;47.536;19.074;2023-04-06T05:35:36;100354.12;;;1.17;52.65
75794;BME280;64418;47.536;19.074;2023-04-06T05:38:02;100343.94;;;1.30;52.19
75794;BME280;64418;47.536;19.074;2023-04-06T05:40:29;100343.38;;;1.36;52.04
75794;BME280;64418;47.536;19.074;2023-04-06T05:42:54;100338.94;;;1.44;51.65
75794;BME280;64418;47.536;19.074;2023-04-06T05:45:21;100343.53;;;1.52;51.67
75794;BME280;64418;47.536;19.074;2023-04-06T05:47:47;100337.62;;;1.58;51.51
75794;BME280;64418;47.536;19.074;2023-04-06T05:50:14;100338.09;;;1.71;51.42
75794;BME280;64418;47.536;19.074;2023-04-06T05:52:40;100335.06;;;1.84;51.21
75794;BME280;64418;47.536;19.074;2023-04-06T05:55:07;100338.31;;;1.78;51.18
75794;BME280;64418;47.536;19.074;2023-04-06T05:57:34;100342.84;;;1.77;51.44
75794;BME280;64418;47.536;19.074;2023-04-06T06:00:00;100336.88;;;1.83;50.92
75794;BME280;64418;47.536;19.074;2023-04-06T06:02:26;100343.44;;;1.89;50.73
75794;BME280;64418;47.536;19.074;2023-04-06T06:04:52;100331.78;;;1.90;50.59
75794;BME280;64418;47.536;19.074;2023-04-06T06:07:18;100336.56;;;1.86;50.64
75794;BME280;64418;47.536;19.074;2023-04-06T06:09:43;100328.47;;;1.78;50.96
75794;BME280;64418;47.536;19.074;2023-04-06T06:12:09;100331.53;;;1.83;50.89
75794;BME280;64418;47.536;19.074;2023-04-06T06:14:36;100317.03;;;1.86;50.87
75794;BME280;64418;47.536;19.074;2023-04-06T06:17:05;100323.41;;;1.85;50.66
75794;BME280;64418;47.536;19.074;2023-04-06T06:19:31;100321.47;;;1.95;50.47
75794;BME280;64418;47.536;19.074;2023-04-06T06:21:57;100321.78;;;2.10;49.79
75794;BME280;64418;47.536;19.074;2023-04-06T06:24:25;100314.50;;;2.20;49.31
75794;BME280;64418;47.536;19.074;2023-04-06T06:26:51;100296.56;;;2.30;48.92
75794;BME280;64418;47.536;19.074;2023-04-06T06:29:17;100301.09;;;2.55;48.39
75794;BME280;64418;47.536;19.074;2023-04-06T06:31:47;100301.59;;;2.59;48.38
75794;BME280;64418;47.536;19.074;2023-04-06T06:34:13;100305.19;;;2.67;47.95
75794;BME280;64418;47.536;19.074;2023-04-06T06:36:38;100301.91;;;2.81;47.83
75794;BME280;64418;47.536;19.074;2023-04-06T06:39:04;100300.00;;;3.00;47.40
75794;BME280;64418;47.536;19.074;2023-04-06T06:41:30;100299.25;;;3.15;46.83
75794;BME280;64418;47.536;19.074;2023-04-06T06:43:59;100294.81;;;3.32;46.50
75794;BME280;64418;47.536;19.074;2023-04-06T06:46:25;100295.88;;;3.63;45.80
75794;BME280;64418;47.536;19.074;2023-04-06T06:48:52;100295.47;;;4.00;44.26
75794;BME280;64418;47.536;19.074;2023-04-06T06:51:18;100291.94;;;4.40;42.72
75794;BME280;64418;47.536;19.074;2023-04-06T06:53:44;100293.25;;;4.28;43.35
75794;BME280;64418;47.536;19.074;2023-04-06T06:56:09;100287.06;;;4.27;43.31
75794;BME280;64418;47.536;19.074;2023-04-06T06:58:36;100288.94;;;4.19;42.93
75794;BME280;64418;47.536;19.074;2023-04-06T07:01:03;100286.75;;;4.22;42.74
75794;BME280;64418;47.536;19.074;2023-04-06T07:03:29;100289.09;;;4.17;43.15
75794;BME280;64418;47.536;19.074;2023-04-06T07:05:56;100287.59;;;4.23;42.63
75794;BME280;64418;47.536;19.074;2023-04-06T07:08:23;100290.44;;;4.29;42.34
75794;BME280;64418;47.536;19.074;2023-04-06T07:10:50;100288.25;;;4.33;42.05
75794;BME280;64418;47.536;19.074;2023-04-06T07:13:17;100289.59;;;4.45;41.36
75794;BME280;64418;47.536;19.074;2023-04-06T07:15:42;100293.56;;;4.57;41.08
75794;BME280;64418;47.536;19.074;2023-04-06T07:18:08;100282.16;;;4.79;40.80
75794;BME280;64418;47.536;19.074;2023-04-06T07:20:34;100286.81;;;4.85;40.28
75794;BME280;64418;47.536;19.074;2023-04-06T07:23:01;100281.59;;;4.92;41.43
75794;BME280;64418;47.536;19.074;2023-04-06T07:25:27;100292.72;;;5.28;40.32
75794;BME280;64418;47.536;19.074;2023-04-06T07:27:53;100295.38;;;5.36;39.04
75794;BME280;64418;47.536;19.074;2023-04-06T07:30:22;100292.03;;;5.26;39.36
75794;BME280;64418;47.536;19.074;2023-04-06T07:32:47;100285.91;;;5.40;38.76
75794;BME280;64418;47.536;19.074;2023-04-06T07:35:15;100283.59;;;5.68;38.65
75794;BME280;64418;47.536;19.074;2023-04-06T07:37:41;100287.03;;;5.85;38.14
75794;BME280;64418;47.536;19.074;2023-04-06T07:40:09;100285.03;;;6.09;37.20
75794;BME280;64418;47.536;19.074;2023-04-06T07:42:35;100278.97;;;6.30;37.28
75794;BME280;64418;47.536;19.074;2023-04-06T07:45:01;100278.50;;;6.26;37.03
75794;BME280;64418;47.536;19.074;2023-04-06T07:47:27;100274.47;;;6.08;37.20
75794;BME280;64418;47.536;19.074;2023-04-06T07:49:54;100278.75;;;6.17;37.08
75794;BME280;64418;47.536;19.074;2023-04-06T07:52:23;100283.22;;;6.02;37.48
75794;BME280;64418;47.536;19.074;2023-04-06T07:54:49;100275.69;;;6.57;36.61
75794;BME280;64418;47.536;19.074;2023-04-06T07:57:20;100280.63;;;6.68;36.28
75794;BME280;64418;47.536;19.074;2023-04-06T07:59:45;100281.03;;;6.95;35.91
75794;BME280;64418;47.536;19.074;2023-04-06T08:02:11;100276.56;;;7.16;35.48
75794;BME280;64418;47.536;19.074;2023-04-06T08:04:37;100278.97;;;7.11;35.64
75794;BME280;64418;47.536;19.074;2023-04-06T08:07:04;100276.84;;;7.07;36.50
75794;BME280;64418;47.536;19.074;2023-04-06T08:09:30;100274.97;;;6.93;35.98
75794;BME280;64418;47.536;19.074;2023-04-06T08:11:57;100266.22;;;6.61;36.22
75794;BME280;64418;47.536;19.074;2023-04-06T08:14:24;100269.84;;;6.54;36.41
75794;BME280;64418;47.536;19.074;2023-04-06T08:16:50;100261.81;;;6.98;35.53
75794;BME280;64418;47.536;19.074;2023-04-06T08:19:16;100270.91;;;6.97;35.82
75794;BME280;64418;47.536;19.074;2023-04-06T08:21:42;100266.63;;;6.88;35.75
75794;BME280;64418;47.536;19.074;2023-04-06T08:24:08;100261.72;;;6.39;36.47
75794;BME280;64418;47.536;19.074;2023-04-06T08:26:34;100258.91;;;6.70;35.90
75794;BME280;64418;47.536;19.074;2023-04-06T08:29:00;100260.03;;;7.05;35.56
75794;BME280;64418;47.536;19.074;2023-04-06T08:31:28;100239.97;;;7.07;35.72
75794;BME280;64418;47.536;19.074;2023-04-06T08:33:53;100253.91;;;6.82;36.06
75794;BME280;64418;47.536;19.074;2023-04-06T08:36:19;100254.19;;;7.52;34.88
75794;BME280;64418;47.536;19.074;2023-04-06T08:38:46;100245.44;;;7.86;34.23
75794;BME280;64418;47.536;19.074;2023-04-06T08:41:13;100250.03;;;8.55;33.11
75794;BME280;64418;47.536;19.074;2023-04-06T08:43:43;100248.31;;;8.76;32.54
75794;BME280;64418;47.536;19.074;2023-04-06T08:46:09;100245.50;;;9.31;31.61
75794;BME280;64418;47.536;19.074;2023-04-06T08:48:38;100254.13;;;9.54;31.30
75794;BME280;64418;47.536;19.074;2023-04-06T08:51:05;100240.91;;;9.92;30.13
75794;BME280;64418;47.536;19.074;2023-04-06T08:53:31;100243.56;;;9.73;29.84
75794;BME280;64418;47.536;19.074;2023-04-06T08:55:58;100238.62;;;10.09;29.59
75794;BME280;64418;47.536;19.074;2023-04-06T08:58:26;100246.06;;;9.20;30.20
75794;BME280;64418;47.536;19.074;2023-04-06T09:00:54;100235.12;;;10.54;28.93
75794;BME280;64418;47.536;19.074;2023-04-06T09:03:20;100237.13;;;11.05;28.01
75794;BME280;64418;47.536;19.074;2023-04-06T09:05:48;100237.22;;;11.30;27.42
75794;BME280;64418;47.536;19.074;2023-04-06T09:08:14;100232.84;;;10.51;28.02
75794;BME280;64418;47.536;19.074;2023-04-06T09:10:41;100239.00;;;11.04;27.10
75794;BME280;64418;47.536;19.074;2023-04-06T09:13:08;100237.09;;;11.11;27.50
75794;BME280;64418;47.536;19.074;2023-04-06T09:15:35;100235.94;;;10.61;27.29
75794;BME280;64418;47.536;19.074;2023-04-06T09:18:01;100224.72;;;10.45;27.63
75794;BME280;64418;47.536;19.074;2023-04-06T09:20:30;100225.97;;;10.49;27.50
75794;BME280;64418;47.536;19.074;2023-04-06T09:22:59;100223.06;;;10.37;27.95
75794;BME280;64418;47.536;19.074;2023-04-06T09:25:26;100224.91;;;10.76;27.38
75794;BME280;64418;47.536;19.074;2023-04-06T09:27:59;100228.00;;;10.86;27.49
75794;BME280;64418;47.536;19.074;2023-04-06T09:30:28;100211.34;;;10.70;27.27
75794;BME280;64418;47.536;19.074;2023-04-06T09:32:55;100222.94;;;11.03;27.41
75794;BME280;64418;47.536;19.074;2023-04-06T09:35:21;100220.53;;;10.69;27.53
75794;BME280;64418;47.536;19.074;2023-04-06T09:37:48;100217.63;;;10.63;27.65
75794;BME280;64418;47.536;19.074;2023-04-06T09:40:17;100218.34;;;11.10;27.26
75794;BME280;64418;47.536;19.074;2023-04-06T09:42:45;100218.78;;;11.00;26.98
75794;BME280;64418;47.536;19.074;2023-04-06T09:45:12;100218.47;;;11.28;26.99
75794;BME280;64418;47.536;19.074;2023-04-06T09:47:39;100215.16;;;11.64;26.19
75794;BME280;64418;47.536;19.074;2023-04-06T09:50:07;100221.06;;;11.54;26.64
75794;BME280;64418;47.536;19.074;2023-04-06T09:52:38;100218.16;;;12.43;25.54
75794;BME280;64418;47.536;19.074;2023-04-06T09:55:06;100210.88;;;11.88;25.56
75794;BME280;64418;47.536;19.074;2023-04-06T09:57:37;100211.66;;;11.95;25.35
75794;BME280;64418;47.536;19.074;2023-04-06T10:00:08;100206.16;;;12.08;25.57
75794;BME280;64418;47.536;19.074;2023-04-06T10:02:41;100203.75;;;12.68;24.74
75794;BME280;64418;47.536;19.074;2023-04-06T10:05:17;100210.91;;;12.80;24.35
75794;BME280;64418;47.536;19.074;2023-04-06T10:07:46;100209.44;;;13.02;24.21
75794;BME280;64418;47.536;19.074;2023-04-06T10:10:14;100203.50;;;13.12;24.31
75794;BME280;64418;47.536;19.074;2023-04-06T10:12:43;100204.47;;;13.66;23.78
75794;BME280;64418;47.536;19.074;2023-04-06T10:15:10;100195.59;;;14.00;22.91
75794;BME280;64418;47.536;19.074;2023-04-06T10:17:36;100187.78;;;14.04;23.13
75794;BME280;64418;47.536;19.074;2023-04-06T10:20:06;100193.56;;;14.37;22.70
75794;BME280;64418;47.536;19.074;2023-04-06T10:22:38;100192.87;;;14.65;22.31
75794;BME280;64418;47.536;19.074;2023-04-06T10:25:08;100189.09;;;14.13;23.45
75794;BME280;64418;47.536;19.074;2023-04-06T10:27:34;100178.25;;;14.36;22.77
75794;BME280;64418;47.536;19.074;2023-04-06T10:30:06;100188.56;;;14.92;22.00
75794;BME280;64418;47.536;19.074;2023-04-06T10:32:36;100177.34;;;13.89;22.49
75794;BME280;64418;47.536;19.074;2023-04-06T10:35:10;100170.56;;;14.68;22.63
75794;BME280;64418;47.536;19.074;2023-04-06T10:37:47;100172.13;;;15.15;21.92
75794;BME280;64418;47.536;19.074;2023-04-06T10:40:23;100174.53;;;15.00;22.35
75794;BME280;64418;47.536;19.074;2023-04-06T10:42:49;100177.22;;;14.49;22.84
75794;BME280;64418;47.536;19.074;2023-04-06T10:45:22;100170.69;;;14.38;22.36
75794;BME280;64418;47.536;19.074;2023-04-06T10:47:48;100173.88;;;14.46;22.66
75794;BME280;64418;47.536;19.074;2023-04-06T10:50:17;100161.91;;;14.36;22.33
75794;BME280;64418;47.536;19.074;2023-04-06T10:52:44;100160.16;;;14.41;21.97
75794;BME280;64418;47.536;19.074;2023-04-06T10:55:10;100158.13;;;13.84;22.59
75794;BME280;64418;47.536;19.074;2023-04-06T10:57:37;100162.91;;;13.59;22.71
75794;BME280;64418;47.536;19.074;2023-04-06T11:00:04;100156.56;;;12.98;22.64
75794;BME280;64418;47.536;19.074;2023-04-06T11:02:32;100138.13;;;12.21;23.60
75794;BME280;64418;47.536;19.074;2023-04-06T11:05:02;100160.25;;;12.00;23.95
75794;BME280;64418;47.536;19.074;2023-04-06T11:07:28;100151.78;;;12.15;24.10
75794;BME280;64418;47.536;19.074;2023-04-06T11:09:54;100155.41;;;12.70;23.33
75794;BME280;64418;47.536;19.074;2023-04-06T11:12:22;100144.88;;;12.80;22.99
75794;BME280;64418;47.536;19.074;2023-04-06T11:14:53;100151.66;;;12.71;23.22
75794;BME280;64418;47.536;19.074;2023-04-06T11:17:25;100148.66;;;13.45;22.09
75794;BME280;64418;47.536;19.074;2023-04-06T11:19:57;100145.22;;;13.20;22.98
75794;BME280;64418;47.536;19.074;2023-04-06T11:22:23;100140.94;;;13.42;22.64
75794;BME280;64418;47.536;19.074;2023-04-06T11:24:49;100148.44;;;13.46;22.48
75794;BME280;64418;47.536;19.074;2023-04-06T11:27:16;100143.09;;;13.40;22.41
75794;BME280;64418;47.536;19.074;2023-04-06T11:29:43;100142.03;;;13.52;22.37
75794;BME280;64418;47.536;19.074;2023-04-06T11:32:09;100142.66;;;13.55;22.51
75794;BME280;64418;47.536;19.074;2023-04-06T11:34:36;100134.91;;;13.40;22.27
75794;BME280;64418;47.536;19.074;2023-04-06T11:37:06;100130.44;;;13.87;22.32
75794;BME280;64418;47.536;19.074;2023-04-06T11:39:38;100130.38;;;14.52;21.55
75794;BME280;64418;47.536;19.074;2023-04-06T11:42:04;100135.34;;;14.78;21.29
75794;BME280;64418;47.536;19.074;2023-04-06T11:44:32;100115.53;;;14.71;20.86
75794;BME280;64418;47.536;19.074;2023-04-06T11:47:00;100123.34;;;14.09;21.39
75794;BME280;64418;47.536;19.074;2023-04-06T11:49:27;100122.44;;;14.62;20.97
75794;BME280;64418;47.536;19.074;2023-04-06T11:51:56;100121.91;;;13.95;21.49
75794;BME280;64418;47.536;19.074;2023-04-06T11:54:35;100121.97;;;13.06;22.66
75794;BME280;64418;47.536;19.074;2023-04-06T11:57:03;100119.41;;;12.74;23.06
75794;BME280;64418;47.536;19.074;2023-04-06T11:59:29;100111.16;;;12.44;24.14
75794;BME280;64418;47.536;19.074;2023-04-06T12:01:56;100114.59;;;12.15;24.80
75794;BME280;64418;47.536;19.074;2023-04-06T12:04:22;100115.06;;;11.49;25.37
75794;BME280;64418;47.536;19.074;2023-04-06T12:06:48;100109.25;;;11.46;25.14
75794;BME280;64418;47.536;19.074;2023-04-06T12:09:14;100115.31;;;11.10;25.42
75794;BME280;64418;47.536;19.074;2023-04-06T12:11:41;100111.00;;;10.96;25.60
75794;BME280;64418;47.536;19.074;2023-04-06T12:14:07;100113.69;;;11.02;25.79
75794;BME280;64418;47.536;19.074;2023-04-06T12:16:33;100116.88;;;10.86;25.89
75794;BME280;64418;47.536;19.074;2023-04-06T12:18:59;100105.00;;;10.81;25.70
75794;BME280;64418;47.536;19.074;2023-04-06T12:21:26;100113.00;;;10.62;25.93
75794;BME280;64418;47.536;19.074;2023-04-06T12:23:53;100107.78;;;10.68;26.16
75794;BME280;64418;47.536;19.074;2023-04-06T12:26:19;100103.94;;;10.95;26.00
75794;BME280;64418;47.536;19.074;2023-04-06T12:28:46;100110.06;;;11.15;25.40
75794;BME280;64418;47.536;19.074;2023-04-06T12:31:15;100105.97;;;12.00;24.49
75794;BME280;64418;47.536;19.074;2023-04-06T12:33:40;100105.41;;;12.89;23.49
75794;BME280;64418;47.536;19.074;2023-04-06T12:36:11;100093.31;;;13.21;22.80
75794;BME280;64418;47.536;19.074;2023-04-06T12:38:38;100107.16;;;13.20;23.23
75794;BME280;64418;47.536;19.074;2023-04-06T12:41:04;100095.25;;;12.66;23.60
75794;BME280;64418;47.536;19.074;2023-04-06T12:43:30;100094.56;;;12.52;24.15